Time;durP1;ratioP1;P1;durP2;ratioP2;P2;SDS_P1;SDS_P2;PMS_P1;PMS_P2;Temp;Humidity;BMP_temperature;BMP_pressure;BME280_temperature;BME280_humidity;BME280_pressure;Samples;Min_cycle;Max_cycle;Signal;HPM_P1;HPM_P2
2022/12/09 00:01:38;;;;;;;92.70;16.77;;;-1.00;99.90;;;;;;5025798;28;20048;-63
2022/12/09 00:04:04;;;;;;;73.90;17.52;;;-1.10;99.90;;;;;;5026283;28;20130;-62
2022/12/09 00:06:30;;;;;;;31.13;15.10;;;-1.10;99.90;;;;;;5028795;28;20060;-63
2022/12/09 00:08:56;;;;;;;37.55;15.45;;;-1.20;99.90;;;;;;5023601;28;21082;-63
2022/12/09 00:11:23;;;;;;;32.88;15.70;;;-1.20;99.90;;;;;;5017410;28;20519;-63
2022/12/09 00:13:54;;;;;;;36.28;15.65;;;-1.30;99.90;;;;;;4998270;28;20068;-63
2022/12/09 00:16:21;;;;;;;39.17;17.70;;;-1.30;99.90;;;;;;5030082;28;20041;-63
2022/12/09 00:18:47;;;;;;;29.70;15.48;;;-1.30;99.90;;;;;;5031643;28;20037;-63
2022/12/09 00:21:21;;;;;;;29.27;15.98;;;-1.30;99.90;;;;;;5028520;28;20444;-63
2022/12/09 00:23:48;;;;;;;27.25;16.10;;;-1.40;99.90;;;;;;5030851;28;20494;-63
2022/12/09 00:26:15;;;;;;;28.63;16.50;;;-1.40;99.90;;;;;;5032073;28;20125;-63
2022/12/09 00:28:42;;;;;;;30.55;17.35;;;-1.40;99.90;;;;;;5030547;28;20766;-63
2022/12/09 00:31:12;;;;;;;30.55;15.77;;;-1.40;99.90;;;;;;5030481;28;20045;-63
2022/12/09 00:33:38;;;;;;;49.55;15.25;;;-1.40;99.90;;;;;;5031065;28;20063;-62
2022/12/09 00:36:09;;;;;;;45.55;15.95;;;-1.40;99.90;;;;;;5031493;28;20384;-63
2022/12/09 00:38:35;;;;;;;57.53;14.50;;;-1.50;99.90;;;;;;5028792;28;20132;-63
2022/12/09 00:41:01;;;;;;;25.55;14.38;;;-1.50;99.90;;;;;;5020035;28;20131;-62
2022/12/09 00:43:27;;;;;;;37.72;14.77;;;-1.60;99.90;;;;;;5026916;28;20742;-63
2022/12/09 00:45:53;;;;;;;57.65;13.98;;;-1.60;99.90;;;;;;5029099;28;20123;-63
2022/12/09 00:48:19;;;;;;;25.77;12.63;;;-1.60;99.90;;;;;;5030563;28;20079;-63
2022/12/09 00:50:45;;;;;;;28.52;13.30;;;-1.70;99.90;;;;;;5029500;28;20044;-62
2022/12/09 00:53:11;;;;;;;23.35;12.27;;;-1.70;99.90;;;;;;5037274;28;20053;-63
2022/12/09 00:55:37;;;;;;;26.50;12.57;;;-1.80;99.90;;;;;;5018439;28;20503;-63
2022/12/09 00:58:04;;;;;;;23.20;12.52;;;-1.80;99.90;;;;;;5032405;28;20041;-62
2022/12/09 01:00:30;;;;;;;19.52;12.50;;;-1.90;99.90;;;;;;5028626;28;20037;-62
2022/12/09 01:02:56;;;;;;;21.40;12.75;;;-1.90;99.90;;;;;;5033372;28;20045;-63
2022/12/09 01:05:21;;;;;;;21.63;12.63;;;-1.90;99.90;;;;;;5030579;28;20527;-62
2022/12/09 01:07:47;;;;;;;19.15;11.93;;;-1.90;99.90;;;;;;5027983;28;20504;-63
2022/12/09 01:10:13;;;;;;;19.48;12.30;;;-1.90;99.90;;;;;;5027269;28;20050;-63
2022/12/09 01:12:39;;;;;;;20.98;11.73;;;-1.90;99.90;;;;;;5015970;28;20041;-63
2022/12/09 01:15:06;;;;;;;18.08;11.50;;;-1.90;99.90;;;;;;5034808;28;20123;-62
2022/12/09 01:17:32;;;;;;;21.42;12.05;;;-1.90;99.90;;;;;;5027202;28;20045;-63
2022/12/09 01:19:58;;;;;;;22.00;11.95;;;-1.90;99.90;;;;;;5030917;28;20045;-61
2022/12/09 01:22:24;;;;;;;16.48;11.15;;;-1.90;99.90;;;;;;5029178;28;20875;-62
2022/12/09 01:24:49;;;;;;;21.27;12.45;;;-1.90;99.90;;;;;;5029738;28;20064;-63
2022/12/09 01:27:15;;;;;;;19.45;11.95;;;-1.90;99.90;;;;;;5030791;28;20053;-62
2022/12/09 01:29:41;;;;;;;22.83;13.55;;;-1.90;99.90;;;;;;5030030;28;20410;-62
2022/12/09 01:32:07;;;;;;;24.85;14.35;;;-1.90;99.90;;;;;;5035443;28;20103;-63
2022/12/09 01:34:32;;;;;;;24.60;13.85;;;-1.90;99.90;;;;;;5012579;28;20045;-63
2022/12/09 01:36:58;;;;;;;25.67;14.27;;;-1.90;99.90;;;;;;5028690;28;20520;-62
2022/12/09 01:39:24;;;;;;;23.45;14.15;;;-1.90;99.90;;;;;;5011164;28;20045;-62
2022/12/09 01:41:50;;;;;;;23.05;13.48;;;-1.90;99.90;;;;;;5028630;28;20049;-62
2022/12/09 01:44:23;;;;;;;25.63;13.73;;;-1.90;99.90;;;;;;5029732;28;20484;-62
2022/12/09 01:46:57;;;;;;;27.13;14.70;;;-1.90;99.90;;;;;;5029177;28;20045;-62
2022/12/09 01:49:33;;;;;;;26.75;14.45;;;-1.90;99.90;;;;;;5028290;28;20128;-62
2022/12/09 01:52:22;;;;;;;23.52;13.27;;;-1.90;99.90;;;;;;5034752;28;20088;-62
2022/12/09 01:54:50;;;;;;;27.88;14.73;;;-2.00;99.90;;;;;;5029498;28;20102;-63
2022/12/09 01:57:16;;;;;;;25.02;15.02;;;-2.00;99.90;;;;;;5034437;28;20071;-62
2022/12/09 01:59:43;;;;;;;31.90;15.02;;;-2.00;99.90;;;;;;5028411;28;20041;-62
2022/12/09 02:02:14;;;;;;;31.13;16.13;;;-1.90;99.90;;;;;;5030798;28;20041;-63
2022/12/09 02:04:44;;;;;;;30.52;16.70;;;-1.80;99.90;;;;;;5028199;28;20049;-63
2022/12/09 02:07:10;;;;;;;34.83;15.93;;;-1.80;99.90;;;;;;5028248;28;20073;-63
2022/12/09 02:09:37;;;;;;;31.33;16.45;;;-1.70;99.90;;;;;;5019178;28;20053;-62
2022/12/09 02:12:09;;;;;;;33.85;16.30;;;-1.40;99.90;;;;;;5025387;28;20049;-62
2022/12/09 02:14:57;;;;;;;28.63;15.48;;;-1.60;99.90;;;;;;5028132;28;20597;-62
2022/12/09 02:17:38;;;;;;;33.33;15.55;;;-1.60;99.90;;;;;;5030334;28;20044;-62
2022/12/09 02:20:22;;;;;;;31.98;16.05;;;-1.50;99.90;;;;;;5038454;28;20041;-62
2022/12/09 02:23:12;;;;;;;31.80;16.40;;;-1.40;99.90;;;;;;5027529;28;20375;-63
2022/12/09 02:25:46;;;;;;;32.38;15.90;;;-1.40;99.90;;;;;;5028870;28;20049;-63
2022/12/09 02:28:30;;;;;;;34.38;15.52;;;-1.40;99.90;;;;;;5029184;28;20048;-62
2022/12/09 02:31:14;;;;;;;32.05;15.68;;;-1.40;99.90;;;;;;5023007;28;20064;-63
2022/12/09 02:34:08;;;;;;;32.72;15.55;;;-1.40;99.90;;;;;;5028360;28;20060;-62
2022/12/09 02:36:45;;;;;;;34.17;15.70;;;-1.30;99.90;;;;;;5025679;28;20565;-62
2022/12/09 02:39:11;;;;;;;29.85;14.45;;;-1.30;99.90;;;;;;5025332;28;20113;-62
2022/12/09 02:41:42;;;;;;;29.05;14.75;;;-1.30;99.90;;;;;;5026889;28;20540;-62
2022/12/09 02:44:14;;;;;;;26.55;14.27;;;-1.20;99.90;;;;;;5015995;28;20045;-62
2022/12/09 02:46:41;;;;;;;30.27;14.82;;;-1.30;99.90;;;;;;5028478;28;20080;-62
2022/12/09 02:49:07;;;;;;;30.48;15.02;;;-1.30;99.90;;;;;;5028595;28;20143;-62
2022/12/09 02:51:36;;;;;;;30.05;14.57;;;-1.30;99.90;;;;;;5028837;28;20045;-62
2022/12/09 02:54:13;;;;;;;28.42;13.95;;;-1.30;99.90;;;;;;5023191;28;20106;-62
2022/12/09 02:56:44;;;;;;;27.33;14.20;;;-1.30;99.90;;;;;;5023298;28;20159;-62
2022/12/09 02:59:10;;;;;;;29.77;15.00;;;-1.30;99.90;;;;;;5022287;28;20056;-62
2022/12/09 03:01:48;;;;;;;30.10;14.20;;;-1.30;99.90;;;;;;5022624;28;20050;-62
2022/12/09 03:04:20;;;;;;;25.55;13.85;;;-1.30;99.90;;;;;;5026629;28;20060;-62
2022/12/09 03:06:54;;;;;;;27.58;13.90;;;-1.30;99.90;;;;;;5024268;28;20155;-62
2022/12/09 03:09:24;;;;;;;25.63;13.48;;;-1.30;99.90;;;;;;5006072;28;20756;-62
2022/12/09 03:11:51;;;;;;;28.48;13.27;;;-1.30;99.90;;;;;;5020241;28;20129;-62
2022/12/09 03:14:40;;;;;;;27.10;13.52;;;-1.30;99.90;;;;;;5024901;28;20415;-62
2022/12/09 03:17:15;;;;;;;28.83;14.70;;;-1.30;99.90;;;;;;5024368;28;20144;-62
2022/12/09 03:19:54;;;;;;;26.42;14.00;;;-1.30;99.90;;;;;;5027284;28;20072;-61
2022/12/09 03:22:25;;;;;;;31.42;14.52;;;-1.30;99.90;;;;;;5031184;28;20051;-62
2022/12/09 03:25:13;;;;;;;28.20;14.43;;;-1.20;99.90;;;;;;5025658;28;20064;-62
2022/12/09 03:28:04;;;;;;;27.13;13.55;;;-1.20;99.90;;;;;;5025216;28;20045;-62
2022/12/09 03:30:36;;;;;;;31.08;14.23;;;-1.20;99.90;;;;;;5029365;28;20548;-62
2022/12/09 03:33:03;;;;;;;27.83;14.07;;;-1.20;99.90;;;;;;5031278;28;20079;-62
2022/12/09 03:35:34;;;;;;;28.50;14.32;;;-1.20;99.90;;;;;;5029823;28;20048;-62
2022/12/09 03:38:04;;;;;;;29.27;14.73;;;-1.20;99.90;;;;;;5010691;28;20041;-62
2022/12/09 03:40:31;;;;;;;27.63;13.85;;;-1.20;99.90;;;;;;5031835;28;20746;-62
2022/12/09 03:43:14;;;;;;;29.85;14.00;;;-1.20;99.90;;;;;;5029613;28;20665;-62
2022/12/09 03:45:41;;;;;;;29.52;14.18;;;-1.20;99.90;;;;;;5026416;28;20133;-62
2022/12/09 03:48:08;;;;;;;34.80;14.93;;;-1.20;99.90;;;;;;5024818;28;20049;-62
2022/12/09 03:50:54;;;;;;;28.08;14.32;;;-1.20;99.90;;;;;;5031344;28;20063;-62
2022/12/09 03:53:51;;;;;;;30.00;14.18;;;-1.20;99.90;;;;;;5032052;28;20056;-62
2022/12/09 03:56:24;;;;;;;31.05;14.15;;;-1.20;99.90;;;;;;5010833;28;20397;-61
2022/12/09 03:58:52;;;;;;;;;;;-1.20;99.90;;;;;;5034507;28;20052;-62
2022/12/09 04:01:19;;;;;;;30.67;14.68;;;-1.20;99.90;;;;;;5032059;28;19920;-62
2022/12/09 04:03:49;;;;;;;29.80;14.52;;;-1.20;99.90;;;;;;5030418;28;20102;-62
2022/12/09 04:06:15;;;;;;;32.67;15.82;;;-1.20;99.90;;;;;;5032264;28;20096;-62
2022/12/09 04:08:41;;;;;;;32.63;13.85;;;-1.20;99.90;;;;;;5030948;28;20056;-62
2022/12/09 04:11:06;;;;;;;27.23;14.50;;;-1.20;99.90;;;;;;5030159;28;20448;-62
2022/12/09 04:13:32;;;;;;;28.98;13.95;;;-1.20;99.90;;;;;;5032376;28;20057;-62
2022/12/09 04:15:58;;;;;;;27.63;13.95;;;-1.30;99.90;;;;;;5032262;28;20053;-61
2022/12/09 04:18:24;;;;;;;31.13;14.82;;;-1.30;99.90;;;;;;5019750;28;20036;-62
2022/12/09 04:20:50;;;;;;;28.15;14.48;;;-1.20;99.90;;;;;;5050538;28;20049;-62
2022/12/09 04:23:15;;;;;;;30.90;14.93;;;-1.20;99.90;;;;;;5032209;28;20041;-62
2022/12/09 04:25:41;;;;;;;27.77;13.50;;;-1.20;99.90;;;;;;5031488;28;20419;-61
2022/12/09 04:28:07;;;;;;;26.98;14.43;;;-1.20;99.90;;;;;;5030936;28;20037;-62
2022/12/09 04:30:33;;;;;;;30.20;14.13;;;-1.20;99.90;;;;;;5021073;28;20626;-62
2022/12/09 04:32:59;;;;;;;25.63;14.40;;;-1.20;99.90;;;;;;5032900;28;20144;-62
2022/12/09 04:35:26;;;;;;;27.02;14.55;;;-1.30;99.90;;;;;;5033092;28;20041;-62
2022/12/09 04:37:52;;;;;;;32.75;14.85;;;-1.30;99.90;;;;;;5041429;28;20049;-62
2022/12/09 04:40:18;;;;;;;29.75;14.75;;;-1.30;99.90;;;;;;5031993;28;20049;-61
2022/12/09 04:42:44;;;;;;;30.88;15.73;;;-1.30;99.90;;;;;;5033263;28;20188;-62
2022/12/09 04:45:10;;;;;;;31.67;15.52;;;-1.20;99.90;;;;;;5031212;28;20045;-62
2022/12/09 04:47:36;;;;;;;30.58;15.73;;;-1.20;99.90;;;;;;5020552;28;20622;-62
2022/12/09 04:50:03;;;;;;;33.55;14.73;;;-1.20;99.90;;;;;;5033027;28;20504;-61
2022/12/09 04:52:28;;;;;;;30.70;16.00;;;-1.20;99.90;;;;;;5032484;28;20081;-62
2022/12/09 04:54:54;;;;;;;30.35;14.98;;;-1.20;99.90;;;;;;5036235;28;20122;-62
2022/12/09 04:57:20;;;;;;;31.98;14.65;;;-1.20;99.90;;;;;;5035920;28;20051;-62
2022/12/09 04:59:46;;;;;;;33.15;16.15;;;-1.20;99.90;;;;;;5030784;28;20120;-62
2022/12/09 05:02:12;;;;;;;27.45;14.25;;;-1.20;99.90;;;;;;5035034;28;20040;-62
2022/12/09 05:04:38;;;;;;;31.27;15.25;;;-1.20;99.90;;;;;;5031920;28;20159;-62
2022/12/09 05:07:03;;;;;;;30.98;14.68;;;-1.20;99.90;;;;;;5018763;28;20049;-62
2022/12/09 05:09:29;;;;;;;29.35;14.60;;;-1.20;99.90;;;;;;5035906;28;20049;-62
2022/12/09 05:11:58;;;;;;;31.08;16.42;;;-1.20;99.90;;;;;;5029117;28;20076;-61
2022/12/09 05:14:24;;;;;;;33.00;14.57;;;-1.20;99.90;;;;;;5028206;28;20048;-61
2022/12/09 05:16:49;;;;;;;30.77;15.18;;;-1.20;99.90;;;;;;5029039;28;20061;-62
2022/12/09 05:19:15;;;;;;;32.75;16.05;;;-1.20;99.90;;;;;;5012378;28;20132;-62
2022/12/09 05:21:42;;;;;;;28.88;15.70;;;-1.20;99.90;;;;;;5033148;28;20096;-62
2022/12/09 05:24:09;;;;;;;33.38;16.95;;;-1.20;99.90;;;;;;5032269;28;20053;-62
2022/12/09 05:26:35;;;;;;;33.70;15.77;;;-1.20;99.90;;;;;;5020374;28;20045;-62
2022/12/09 05:29:01;;;;;;;35.17;16.17;;;-1.20;99.90;;;;;;5031698;28;20048;-61
2022/12/09 05:31:27;;;;;;;30.50;15.13;;;-1.30;99.90;;;;;;5028861;28;20108;-61
2022/12/09 05:33:52;;;;;;;28.95;15.43;;;-1.30;99.90;;;;;;5039659;28;20533;-62
2022/12/09 05:36:23;;;;;;;33.08;16.80;;;-1.30;99.90;;;;;;5027603;28;20044;-62
2022/12/09 05:38:49;;;;;;;32.70;16.17;;;-1.30;99.90;;;;;;5007556;28;20076;-62
2022/12/09 05:41:19;;;;;;;32.10;15.30;;;-1.30;99.90;;;;;;5031201;28;20060;-62
2022/12/09 05:43:45;;;;;;;31.20;16.05;;;-1.30;99.90;;;;;;5049573;28;20046;-62
2022/12/09 05:46:12;;;;;;;37.10;16.23;;;-1.20;99.90;;;;;;5034114;28;20120;-62
2022/12/09 05:48:38;;;;;;;33.78;15.82;;;-1.30;99.90;;;;;;5028848;28;20053;-62
2022/12/09 05:51:20;;;;;;;33.42;16.17;;;-1.30;99.90;;;;;;5027315;28;20053;-62
2022/12/09 05:53:46;;;;;;;30.83;16.05;;;-1.30;99.90;;;;;;5031329;28;20072;-62
2022/12/09 05:56:15;;;;;;;34.90;15.85;;;-1.30;99.90;;;;;;5018397;28;20818;-64
2022/12/09 05:58:40;;;;;;;30.30;15.13;;;-1.30;99.90;;;;;;5035126;28;20056;-62
2022/12/09 06:01:07;;;;;;;34.85;16.40;;;-1.20;99.90;;;;;;5025202;28;20411;-62
2022/12/09 06:03:33;;;;;;;32.45;16.00;;;-1.30;99.90;;;;;;5026234;28;20045;-62
2022/12/09 06:06:05;;;;;;;32.53;16.80;;;-1.30;99.90;;;;;;5023435;28;20064;-62
2022/12/09 06:08:31;;;;;;;30.48;16.52;;;-1.30;99.90;;;;;;5028102;28;20049;-62
2022/12/09 06:10:56;;;;;;;31.30;15.45;;;-1.30;99.90;;;;;;5015228;28;20052;-61
2022/12/09 06:13:22;;;;;;;37.00;16.27;;;-1.30;99.90;;;;;;5027976;28;20056;-62
2022/12/09 06:15:48;;;;;;;34.25;16.00;;;-1.30;99.90;;;;;;5013567;28;20178;-62
2022/12/09 06:18:14;;;;;;;30.25;15.65;;;-1.30;99.90;;;;;;5025726;28;20045;-62
2022/12/09 06:20:40;;;;;;;32.15;16.65;;;-1.30;99.90;;;;;;5025901;28;20079;-62
2022/12/09 06:23:06;;;;;;;30.17;15.40;;;-1.30;99.90;;;;;;5023436;28;20036;-62
2022/12/09 06:25:32;;;;;;;31.48;15.35;;;-1.30;99.90;;;;;;5027210;28;20057;-61
2022/12/09 06:27:58;;;;;;;30.67;15.40;;;-1.30;99.90;;;;;;5025763;28;20037;-62
2022/12/09 06:30:23;;;;;;;30.63;15.85;;;-1.30;99.90;;;;;;5025861;28;20052;-61
2022/12/09 06:32:49;;;;;;;31.85;15.45;;;-1.30;99.90;;;;;;5013952;28;20297;-62
2022/12/09 06:35:15;;;;;;;33.63;15.85;;;-1.30;99.90;;;;;;5014278;28;20095;-61
2022/12/09 06:37:41;;;;;;;30.92;14.15;;;-1.30;99.90;;;;;;5027201;28;20061;-62
2022/12/09 06:40:07;;;;;;;27.85;14.02;;;-1.30;99.90;;;;;;5022904;28;20057;-61
2022/12/09 06:42:33;;;;;;;28.00;15.15;;;-1.40;99.90;;;;;;5026188;28;20471;-62
2022/12/09 06:44:58;;;;;;;36.00;16.15;;;-1.30;99.90;;;;;;5027893;28;20038;-62
2022/12/09 06:47:24;;;;;;;29.80;15.27;;;-1.30;99.90;;;;;;5024016;28;20535;-62
2022/12/09 06:49:50;;;;;;;29.50;14.93;;;-1.30;99.90;;;;;;5010618;28;20085;-60
2022/12/09 06:52:16;;;;;;;29.35;14.75;;;-1.30;99.90;;;;;;5040804;28;20391;-62
2022/12/09 06:54:42;;;;;;;25.75;13.98;;;-1.30;99.90;;;;;;5027999;28;20122;-62
2022/12/09 06:57:07;;;;;;;31.52;15.52;;;-1.40;99.90;;;;;;5031905;28;20167;-62
2022/12/09 06:59:33;;;;;;;27.40;14.45;;;-1.40;99.90;;;;;;5031568;28;20052;-62
2022/12/09 07:01:59;;;;;;;30.17;15.05;;;-1.30;99.90;;;;;;5020807;28;20049;-62
2022/12/09 07:04:25;;;;;;;29.23;15.48;;;-1.40;99.90;;;;;;5026302;28;20072;-62
2022/12/09 07:06:51;;;;;;;26.95;14.48;;;-1.30;99.90;;;;;;5023358;28;20056;-62
2022/12/09 07:09:19;;;;;;;27.92;15.32;;;-1.30;99.90;;;;;;5025332;28;20099;-62
2022/12/09 07:11:45;;;;;;;28.88;15.20;;;-1.40;99.90;;;;;;5003444;28;20147;-61
2022/12/09 07:14:13;;;;;;;29.88;15.25;;;-1.40;99.90;;;;;;5028954;28;20045;-62
2022/12/09 07:16:39;;;;;;;29.15;14.98;;;-1.40;99.90;;;;;;5025406;28;20502;-61
2022/12/09 07:19:05;;;;;;;27.85;14.38;;;-1.40;99.90;;;;;;5019846;28;20049;-62
2022/12/09 07:21:32;;;;;;;25.27;14.05;;;-1.40;99.90;;;;;;5030988;28;20037;-61
2022/12/09 07:23:59;;;;;;;30.90;15.50;;;-1.40;99.90;;;;;;5013094;28;20511;-62
2022/12/09 07:26:25;;;;;;;31.45;15.73;;;-1.50;99.90;;;;;;5031138;28;20500;-62
2022/12/09 07:28:51;;;;;;;28.08;14.90;;;-1.50;99.90;;;;;;5035850;28;20053;-61
2022/12/09 07:31:19;;;;;;;30.27;15.65;;;-1.60;99.90;;;;;;5032522;28;20131;-61
2022/12/09 07:33:45;;;;;;;30.15;15.18;;;-1.50;99.90;;;;;;5034410;28;20045;-59
2022/12/09 07:36:12;;;;;;;32.42;16.00;;;-1.60;99.90;;;;;;5029971;28;20080;-62
2022/12/09 07:38:38;;;;;;;31.05;15.50;;;-1.50;99.90;;;;;;5019172;28;20048;-62
2022/12/09 07:41:06;;;;;;;25.90;14.13;;;-1.50;99.90;;;;;;5021760;28;20049;-62
2022/12/09 07:43:33;;;;;;;33.03;16.17;;;-1.50;99.90;;;;;;5032608;28;20810;-62
2022/12/09 07:46:03;;;;;;;31.05;14.70;;;-1.50;99.90;;;;;;5031302;28;20136;-62
2022/12/09 07:48:29;;;;;;;29.30;14.57;;;-1.50;99.90;;;;;;5036480;28;20119;-62
2022/12/09 07:50:59;;;;;;;27.25;14.77;;;-1.50;99.90;;;;;;5035515;28;20411;-62
2022/12/09 07:53:25;;;;;;;34.35;15.82;;;-1.60;99.90;;;;;;5034190;28;20095;-62
2022/12/09 07:55:51;;;;;;;35.15;16.50;;;-1.60;99.90;;;;;;5031526;28;20053;-62
2022/12/09 07:58:16;;;;;;;30.02;15.35;;;-1.50;99.90;;;;;;5034705;28;20458;-62
2022/12/09 08:00:42;;;;;;;35.95;16.52;;;-1.50;99.90;;;;;;5031278;28;20438;-62
2022/12/09 08:03:11;;;;;;;32.72;16.52;;;-1.50;99.90;;;;;;5031922;28;20084;-62
2022/12/09 08:05:44;;;;;;;33.00;17.13;;;-1.50;99.90;;;;;;5027859;28;20040;-62
2022/12/09 08:08:10;;;;;;;32.03;16.63;;;-1.50;99.90;;;;;;5029716;28;20059;-62
2022/12/09 08:10:36;;;;;;;33.85;16.95;;;-1.40;99.90;;;;;;5036812;28;20041;-60
2022/12/09 08:13:01;;;;;;;34.90;17.00;;;-1.50;99.90;;;;;;5032341;28;20046;-62
2022/12/09 08:15:27;;;;;;;38.78;18.95;;;-1.40;99.90;;;;;;5033668;28;20052;-61
2022/12/09 08:17:53;;;;;;;43.75;20.10;;;-1.40;99.90;;;;;;5031376;28;20080;-62
2022/12/09 08:20:19;;;;;;;42.42;20.58;;;-1.40;99.90;;;;;;5032482;28;20038;-61
2022/12/09 08:22:44;;;;;;;40.20;19.25;;;-1.40;99.90;;;;;;5030949;28;20411;-62
2022/12/09 08:25:10;;;;;;;34.83;18.42;;;-1.30;99.90;;;;;;5030323;28;20040;-61
2022/12/09 08:27:36;;;;;;;35.53;18.38;;;-1.30;99.90;;;;;;5030540;28;20056;-62
2022/12/09 08:30:03;;;;;;;37.53;18.25;;;-1.30;99.90;;;;;;5029978;28;20483;-62
2022/12/09 08:32:29;;;;;;;40.65;18.67;;;-1.30;99.90;;;;;;5034910;28;20037;-61
2022/12/09 08:34:55;;;;;;;37.10;18.90;;;-1.30;99.90;;;;;;5033222;28;20048;-62
2022/12/09 08:37:21;;;;;;;43.80;20.05;;;-1.30;99.90;;;;;;5033743;28;20071;-62
2022/12/09 08:39:47;;;;;;;41.00;20.25;;;-1.30;99.90;;;;;;5033911;28;20061;-62
2022/12/09 08:42:13;;;;;;;44.53;19.50;;;-1.20;99.90;;;;;;5028897;28;20696;-62
2022/12/09 08:44:38;;;;;;;42.47;20.52;;;-1.20;99.90;;;;;;5019689;28;20056;-62
2022/12/09 08:47:05;;;;;;;41.47;19.90;;;-1.20;99.90;;;;;;5031587;28;20052;-62
2022/12/09 08:49:31;;;;;;;40.08;19.45;;;-1.10;99.90;;;;;;5032569;28;20135;-62
2022/12/09 08:51:56;;;;;;;42.38;20.63;;;-1.10;99.90;;;;;;5034887;28;20049;-62
2022/12/09 08:54:22;;;;;;;43.60;20.50;;;-1.10;99.90;;;;;;5029861;28;20045;-62
2022/12/09 08:56:52;;;;;;;41.17;19.05;;;-1.10;99.90;;;;;;5037674;28;20044;-62
2022/12/09 08:59:18;;;;;;;36.45;18.63;;;-1.00;99.90;;;;;;5027439;28;20069;-62
2022/12/09 09:01:44;;;;;;;36.55;18.27;;;-1.00;99.90;;;;;;5033400;28;20041;-61
2022/12/09 09:04:12;;;;;;;42.42;20.75;;;-1.00;99.90;;;;;;5031552;28;20040;-62
2022/12/09 09:06:41;;;;;;;42.78;20.63;;;-0.80;99.90;;;;;;5032149;28;20507;-60
2022/12/09 09:09:08;;;;;;;44.50;21.65;;;-0.80;99.90;;;;;;5034818;28;20056;-62
2022/12/09 09:11:34;;;;;;;46.28;21.40;;;-0.80;99.90;;;;;;5031676;28;20471;-62
2022/12/09 09:14:06;;;;;;;46.58;22.35;;;-0.80;99.90;;;;;;5032585;28;20049;-62
2022/12/09 09:16:32;;;;;;;48.33;23.13;;;-0.70;99.90;;;;;;5028252;28;20125;-59
2022/12/09 09:18:58;;;;;;;48.40;23.33;;;-0.70;99.90;;;;;;5030801;28;20072;-62
2022/12/09 09:21:27;;;;;;;46.33;23.15;;;-0.60;99.90;;;;;;5033227;28;20036;-61
2022/12/09 09:23:53;;;;;;;53.60;23.92;;;-0.50;99.90;;;;;;5032073;28;20051;-62
2022/12/09 09:26:22;;;;;;;57.25;25.90;;;-0.50;99.90;;;;;;5030933;28;20167;-61
2022/12/09 09:28:48;;;;;;;59.58;27.05;;;-0.50;99.90;;;;;;5032745;28;20079;-62
2022/12/09 09:31:19;;;;;;;59.42;27.40;;;-0.40;99.90;;;;;;5028165;28;20103;-62
2022/12/09 09:33:46;;;;;;;59.47;26.77;;;-0.40;99.90;;;;;;5028236;28;20518;-61
2022/12/09 09:36:14;;;;;;;63.78;28.33;;;-0.40;99.90;;;;;;5031714;28;20048;-61
2022/12/09 09:38:40;;;;;;;72.30;29.65;;;-0.40;99.90;;;;;;5031516;28;20107;-62
2022/12/09 09:41:22;;;;;;;75.28;29.17;;;-0.40;99.90;;;;;;5034211;28;20461;-62
2022/12/09 09:43:48;;;;;;;67.78;28.67;;;-0.40;99.90;;;;;;5030439;28;20041;-62
2022/12/09 09:46:23;;;;;;;83.05;30.38;;;-0.40;99.90;;;;;;5024834;28;20566;-62
2022/12/09 09:48:50;;;;;;;76.50;29.00;;;-0.30;99.90;;;;;;5036592;28;20048;-60
2022/12/09 09:51:19;;;;;;;73.78;29.85;;;-0.30;99.90;;;;;;5027972;28;20182;-62
2022/12/09 09:53:49;;;;;;;72.38;28.70;;;-0.20;99.90;;;;;;5033742;28;20052;-62
2022/12/09 09:56:35;;;;;;;69.80;28.92;;;-0.20;99.90;;;;;;5037426;28;20060;-61
2022/12/09 09:59:19;;;;;;;80.75;30.60;;;-0.20;99.90;;;;;;5029674;28;20340;-60
2022/12/09 10:02:03;;;;;;;77.47;30.20;;;-0.10;99.90;;;;;;5030813;28;20048;-62
2022/12/09 10:04:47;;;;;;;68.05;27.83;;;-0.20;99.90;;;;;;5036621;28;20435;-61
2022/12/09 10:07:22;;;;;;;67.28;27.08;;;-0.10;99.90;;;;;;5028328;28;20061;-62
2022/12/09 10:10:03;;;;;;;67.45;27.27;;;-0.10;99.90;;;;;;5026710;28;20144;-61
2022/12/09 10:12:49;;;;;;;63.03;27.40;;;0.00;99.90;;;;;;5029533;28;20052;-60
2022/12/09 10:15:20;;;;;;;54.83;26.23;;;0.00;99.90;;;;;;5026415;28;20052;-61
2022/12/09 10:17:52;;;;;;;58.78;26.00;;;0.00;99.90;;;;;;5029739;28;20107;-61
2022/12/09 10:20:21;;;;;;;53.13;25.63;;;0.00;99.90;;;;;;5028573;28;20068;-61
2022/12/09 10:22:57;;;;;;;58.33;25.08;;;0.00;99.90;;;;;;5023954;28;20391;-61
2022/12/09 10:25:26;;;;;;;65.10;27.83;;;0.00;99.90;;;;;;5028222;28;20048;-59
2022/12/09 10:28:20;;;;;;;60.67;26.48;;;0.00;99.90;;;;;;5030851;28;20049;-61
2022/12/09 10:30:51;;;;;;;57.03;26.13;;;0.00;99.90;;;;;;5030792;28;20219;-61
2022/12/09 10:33:21;;;;;;;64.85;28.42;;;0.10;99.90;;;;;;5029923;28;20045;-62
2022/12/09 10:35:47;;;;;;;59.20;27.45;;;0.10;99.90;;;;;;5033219;28;20049;-61
2022/12/09 10:38:16;;;;;;;77.05;29.98;;;0.10;99.90;;;;;;5031880;28;20044;-60
2022/12/09 10:40:44;;;;;;;59.60;26.65;;;0.10;99.90;;;;;;5030130;28;20063;-61
2022/12/09 10:46:11;;;;;;;67.18;28.00;;;0.20;99.90;;;;;;5030824;28;20053;-62
2022/12/09 10:48:45;;;;;;;62.42;27.50;;;0.20;99.90;;;;;;5029104;28;20064;-61
2022/12/09 10:51:18;;;;;;;61.22;27.13;;;0.20;99.90;;;;;;5034911;28;20048;-62
2022/12/09 10:53:46;;;;;;;58.85;25.95;;;0.20;99.90;;;;;;5034759;28;20049;-61
2022/12/09 10:56:36;;;;;;;54.22;26.35;;;0.20;99.90;;;;;;5008378;28;20218;-61
2022/12/09 10:59:24;;;;;;;57.40;25.27;;;0.20;99.90;;;;;;5024587;28;20084;-62
2022/12/09 11:01:56;;;;;;;56.20;25.65;;;0.30;99.90;;;;;;5030499;28;20037;-61
2022/12/09 11:04:30;;;;;;;54.92;26.27;;;0.30;99.90;;;;;;5032086;28;20811;-62
2022/12/09 11:07:11;;;;;;;55.45;24.67;;;0.30;99.90;;;;;;5031227;28;20079;-61
2022/12/09 11:09:54;;;;;;;51.35;24.40;;;0.40;99.90;;;;;;5032093;28;20353;-62
2022/12/09 11:12:26;;;;;;;52.78;25.05;;;0.40;99.90;;;;;;5031655;28;20057;-62
2022/12/09 11:14:53;;;;;;;51.33;24.83;;;0.40;99.90;;;;;;5031015;28;20064;-60
2022/12/09 11:17:24;;;;;;;48.55;24.55;;;0.40;99.90;;;;;;5028861;28;20463;-62
2022/12/09 11:20:06;;;;;;;51.33;25.30;;;0.40;99.90;;;;;;5032728;28;20114;-62
2022/12/09 11:22:39;;;;;;;50.38;24.35;;;0.40;99.90;;;;;;5033223;28;20044;-60
2022/12/09 11:25:11;;;;;;;62.22;27.02;;;0.40;99.90;;;;;;5031199;28;20135;-61
2022/12/09 11:27:52;;;;;;;55.20;26.45;;;0.40;99.90;;;;;;5049782;28;20496;-62
2022/12/09 11:30:26;;;;;;;58.47;26.55;;;0.50;99.90;;;;;;5031087;28;20060;-62
2022/12/09 11:32:59;;;;;;;58.72;24.88;;;0.50;99.90;;;;;;5029323;28;20117;-62
2022/12/09 11:36:13;;;;;;;54.08;25.58;;;0.50;99.90;;;;;;5033479;28;20400;-62
2022/12/09 11:38:42;;;;;;;58.20;25.63;;;0.50;99.90;;;;;;5024746;28;20166;-62
2022/12/09 11:41:08;;;;;;;54.22;25.17;;;0.50;99.90;;;;;;5031891;28;20049;-62
2022/12/09 11:43:37;;;;;;;52.58;25.75;;;0.50;99.90;;;;;;5033489;28;20056;-61
2022/12/09 11:46:13;;;;;;;58.53;26.75;;;0.50;99.90;;;;;;5033605;28;20111;-62
2022/12/09 11:49:02;;;;;;;61.10;27.90;;;0.50;99.90;;;;;;5030425;28;20738;-62
2022/12/09 11:51:36;;;;;;;58.58;25.90;;;0.50;99.90;;;;;;5032704;28;20045;-62
2022/12/09 11:54:23;;;;;;;56.50;27.77;;;0.60;99.90;;;;;;5031320;28;20130;-62
2022/12/09 11:56:50;;;;;;;62.80;28.73;;;0.50;99.90;;;;;;5031879;28;20064;-62
2022/12/09 11:59:22;;;;;;;58.08;26.73;;;0.60;99.90;;;;;;5033277;28;20036;-62
2022/12/09 12:02:04;;;;;;;58.08;27.98;;;0.60;99.90;;;;;;5036158;28;20104;-61
2022/12/09 12:04:36;;;;;;;55.93;27.23;;;0.60;99.90;;;;;;5030952;28;20045;-63
2022/12/09 12:07:16;;;;;;;59.05;29.05;;;0.70;99.90;;;;;;5028150;28;20216;-62
2022/12/09 12:09:52;;;;;;;64.05;27.98;;;0.70;99.90;;;;;;5029266;28;20533;-62
2022/12/09 12:12:42;;;;;;;57.95;27.23;;;0.70;99.90;;;;;;5031932;28;20142;-62
2022/12/09 12:15:27;;;;;;;61.75;28.05;;;0.70;99.90;;;;;;5039584;28;20045;-61
2022/12/09 12:17:55;;;;;;;64.85;28.23;;;0.80;99.90;;;;;;5034210;28;20554;-62
2022/12/09 12:20:36;;;;;;;59.35;27.48;;;0.80;99.90;;;;;;5042160;28;20427;-63
2022/12/09 12:23:09;;;;;;;54.85;27.67;;;0.80;99.90;;;;;;5037254;28;20597;-62
2022/12/09 12:25:55;;;;;;;59.75;27.63;;;0.80;99.90;;;;;;5035587;28;20148;-62
2022/12/09 12:28:44;;;;;;;62.92;29.92;;;0.80;99.90;;;;;;5049644;28;20129;-62
2022/12/09 12:31:22;;;;;;;64.10;29.25;;;0.80;99.90;;;;;;5034920;28;20040;-62
2022/12/09 12:33:54;;;;;;;61.97;28.15;;;0.80;99.90;;;;;;5034264;28;20056;-62
2022/12/09 12:36:44;;;;;;;58.45;27.60;;;0.80;99.90;;;;;;5035340;28;20487;-62
2022/12/09 12:39:25;;;;;;;57.88;27.10;;;0.80;99.90;;;;;;5035111;28;20044;-62
2022/12/09 12:42:21;;;;;;;63.22;27.80;;;0.80;99.90;;;;;;5034746;28;20042;-61
2022/12/09 12:48:36;;;;;;;53.87;26.87;;;0.50;99.90;;;;;;4946952;28;20596;-62
2022/12/09 12:51:08;;;;;;;56.72;26.73;;;0.70;99.90;;;;;;5032046;28;20040;-62